Sunrise, Florida
Current Conditions -  °F | °C
As of 1:53 PM on Thursday 27 Nov 2014 (Local Time) from KFXE Reporting Station
Clear Clear  
Wind Chill: 72°   Ceiling: Unl
Heat Index: 72°   Visibility: 10mi
Dew Point: 41°   Wind: 9mph
Humidity: 33%   Direction: 330°NNW
Pressure: 30.16"   Gusts: NA
Location:  26.15°N, 80.33°W
Report Text: KFXE 271853Z 33008KT 10SM CLR 22/05 A3016 RMK AO2 SLP215 T02220050
Loading
Personal Weather Stations






























Interactive Weather Map New forecast layout! Learn more

10-Day Weather Forecast

Advertisements
Track Severe Weather on mobile